createdAt,value
2022-10-06T00:02:24.514Z,96140.20
2022-10-06T00:04:50.813Z,96145.51
2022-10-06T00:07:17.155Z,96148.44
2022-10-06T00:09:43.520Z,96151.02
2022-10-06T00:12:09.856Z,96135.70
2022-10-06T00:14:36.198Z,96142.33
2022-10-06T00:17:02.557Z,96142.92
2022-10-06T00:19:28.887Z,96123.45
2022-10-06T00:21:55.258Z,96131.22
2022-10-06T00:24:21.589Z,96131.95
2022-10-06T00:26:47.939Z,96133.71
2022-10-06T00:29:14.292Z,96133.71
2022-10-06T00:31:40.642Z,96136.63
2022-10-06T00:34:06.980Z,96136.16
2022-10-06T00:36:33.360Z,96135.45
2022-10-06T00:38:59.732Z,96131.06
2022-10-06T00:41:26.071Z,96125.56
2022-10-06T00:43:52.404Z,96125.56
2022-10-06T00:46:18.816Z,96120.97
2022-10-06T00:48:45.087Z,96117.78
2022-10-06T00:51:11.434Z,96116.95
2022-10-06T00:53:37.787Z,96110.01
2022-10-06T00:56:04.153Z,96115.20
2022-10-06T00:58:30.912Z,96115.20
2022-10-06T01:00:56.846Z,96110.48
2022-10-06T01:03:23.183Z,96101.19
2022-10-06T01:05:49.522Z,96106.96
2022-10-06T01:08:15.895Z,96101.05
2022-10-06T01:10:42.253Z,96096.23
2022-10-06T01:13:08.604Z,96091.52
2022-10-06T01:15:35.003Z,96075.00
2022-10-06T01:18:01.272Z,96092.34
2022-10-06T01:20:27.610Z,96077.86
2022-10-06T01:22:53.950Z,96081.84
2022-10-06T01:25:20.292Z,96072.78
2022-10-06T01:27:46.641Z,96071.61
2022-10-06T01:30:12.983Z,96068.89
2022-10-06T01:32:39.339Z,96071.25
2022-10-06T01:35:05.670Z,96070.92
2022-10-06T01:37:32.013Z,96070.92
2022-10-06T01:39:58.356Z,96073.84
2022-10-06T01:42:24.691Z,96072.78
2022-10-06T01:44:51.034Z,96069.03
2022-10-06T01:47:17.372Z,96069.03
2022-10-06T01:49:43.709Z,96057.09
2022-10-06T01:52:10.047Z,96057.09
2022-10-06T01:54:36.416Z,96065.37
2022-10-06T01:57:02.763Z,96071.38
2022-10-06T01:59:29.099Z,96063.01
2022-10-06T02:01:55.462Z,96073.47
2022-10-06T02:04:21.817Z,96062.50
2022-10-06T02:06:48.127Z,96076.75
2022-10-06T02:09:14.469Z,96076.33
2022-10-06T02:11:40.806Z,96076.33
2022-10-06T02:14:07.140Z,96078.42
2022-10-06T02:16:33.482Z,96084.66
2022-10-06T02:19:01.042Z,96069.33
2022-10-06T02:21:26.184Z,96069.33
2022-10-06T02:23:52.517Z,96068.97
2022-10-06T02:26:18.856Z,96065.77
2022-10-06T02:28:45.265Z,96072.62
2022-10-06T02:31:11.576Z,96071.33
2022-10-06T02:33:37.875Z,96053.15
2022-10-06T02:36:04.199Z,96060.36
2022-10-06T02:38:30.948Z,96071.56
2022-10-06T02:40:56.896Z,96068.97
2022-10-06T02:43:23.220Z,96075.44
2022-10-06T02:45:49.561Z,96078.26
2022-10-06T02:48:15.904Z,96064.00
2022-10-06T02:50:42.248Z,96079.42
2022-10-06T02:53:08.584Z,96079.42
2022-10-06T02:55:34.922Z,96078.50
2022-10-06T02:58:01.256Z,96078.50
2022-10-06T03:00:27.607Z,96075.81
2022-10-06T03:02:54.049Z,96081.23
2022-10-06T03:05:20.285Z,96085.67
2022-10-06T03:07:46.621Z,96082.84
2022-10-06T03:10:12.955Z,96083.90
2022-10-06T03:12:39.298Z,96082.59
2022-10-06T03:15:05.647Z,96080.61
2022-10-06T03:17:31.982Z,96085.30
2022-10-06T03:19:58.332Z,96084.00
2022-10-06T03:22:24.665Z,96078.02
2022-10-06T03:24:51.033Z,96078.02
2022-10-06T03:27:17.369Z,96084.22
2022-10-06T03:29:43.702Z,96080.56
2022-10-06T03:32:10.102Z,96083.16
2022-10-06T03:34:36.446Z,96076.22
2022-10-06T03:37:02.791Z,96076.22
2022-10-06T03:39:29.126Z,96064.93
2022-10-06T03:41:55.469Z,96063.17
2022-10-06T03:44:21.804Z,96064.10
2022-10-06T03:46:48.178Z,96064.10
2022-10-06T03:49:14.497Z,96063.64
2022-10-06T03:51:40.841Z,96057.64
2022-10-06T03:54:07.175Z,96057.64
2022-10-06T03:56:34.489Z,96054.22
2022-10-06T03:58:59.857Z,96055.73
2022-10-06T04:01:26.877Z,96061.41
2022-10-06T04:03:52.567Z,96062.80
2022-10-06T04:06:18.909Z,96058.33
2022-10-06T04:08:45.254Z,96057.03
2022-10-06T04:11:11.681Z,96044.73
2022-10-06T04:13:38.026Z,96057.77
2022-10-06T04:16:04.388Z,96050.98
2022-10-06T04:18:31.206Z,96050.98
2022-10-06T04:20:57.057Z,96069.05
2022-10-06T04:23:23.405Z,96065.77
2022-10-06T04:25:55.173Z,96065.77
2022-10-06T04:28:16.150Z,96070.72
2022-10-06T04:30:42.455Z,96070.72
2022-10-06T04:33:08.796Z,96069.76
2022-10-06T04:35:35.154Z,96070.36
2022-10-06T04:38:01.483Z,96046.03
2022-10-06T04:40:27.829Z,96074.84
2022-10-06T04:42:54.175Z,96079.09
2022-10-06T04:45:20.518Z,96077.33
2022-10-06T04:47:46.973Z,96076.50
2022-10-06T04:50:13.310Z,96082.23
2022-10-06T04:52:39.651Z,96086.03
2022-10-06T04:55:05.995Z,96083.80
2022-10-06T04:57:32.345Z,96092.28
2022-10-06T05:00:03.023Z,96087.46
2022-10-06T05:02:26.315Z,96086.63
2022-10-06T05:04:51.362Z,96086.39
2022-10-06T05:07:17.716Z,96091.20
2022-10-06T05:09:44.061Z,96090.70
2022-10-06T05:12:10.400Z,96091.53
2022-10-06T05:14:36.747Z,96094.62
2022-10-06T05:17:03.090Z,96095.19
2022-10-06T05:19:29.430Z,96102.25
2022-10-06T05:21:55.799Z,96100.13
2022-10-06T05:24:22.134Z,96099.66
2022-10-06T05:26:48.488Z,96096.75
2022-10-06T05:29:14.835Z,96096.75
2022-10-06T05:31:41.283Z,96095.31
2022-10-06T05:34:07.538Z,96092.13
2022-10-06T05:36:33.916Z,96093.41
2022-10-06T05:39:00.223Z,96101.41
2022-10-06T05:41:26.587Z,96094.01
2022-10-06T05:43:52.895Z,96098.59
2022-10-06T05:46:19.287Z,96094.58
2022-10-06T05:48:45.583Z,96096.47
2022-10-06T05:51:11.923Z,96092.50
2022-10-06T05:53:38.261Z,96097.09
2022-10-06T05:56:04.605Z,96061.55
2022-10-06T05:58:31.275Z,96100.05
2022-10-06T06:00:57.295Z,96084.00
2022-10-06T06:03:23.637Z,96084.00
2022-10-06T06:05:49.986Z,96086.49
2022-10-06T06:08:16.384Z,96100.65
2022-10-06T06:10:43.058Z,96093.81
2022-10-06T06:13:09.422Z,96098.89
2022-10-06T06:15:35.773Z,96099.82
2022-10-06T06:18:02.152Z,96098.51
2022-10-06T06:20:28.538Z,96096.70
2022-10-06T06:22:54.882Z,96101.56
2022-10-06T06:25:21.230Z,96090.28
2022-10-06T06:27:47.579Z,96090.28
2022-10-06T06:30:14.946Z,96100.13
2022-10-06T06:32:40.307Z,96104.84
2022-10-06T06:35:06.648Z,96111.31
2022-10-06T06:37:32.983Z,96111.31
2022-10-06T06:39:59.326Z,96113.22
2022-10-06T06:42:25.666Z,96111.09
2022-10-06T06:44:51.998Z,96111.09
2022-10-06T06:47:20.774Z,96106.84
2022-10-06T06:49:44.701Z,96108.28
2022-10-06T06:52:11.042Z,96108.28
2022-10-06T06:54:37.431Z,96107.58
2022-10-06T06:57:03.781Z,96108.88
2022-10-06T06:59:30.223Z,96102.63
2022-10-06T07:01:56.595Z,96102.63
2022-10-06T07:04:22.915Z,96107.95
2022-10-06T07:06:49.258Z,96107.95
2022-10-06T07:09:15.615Z,96098.16
2022-10-06T07:11:41.952Z,96098.16
2022-10-06T07:14:08.310Z,96096.48
2022-10-06T07:16:34.649Z,96082.13
2022-10-06T07:19:01.005Z,96082.13
2022-10-06T07:21:27.351Z,96098.96
2022-10-06T07:23:53.729Z,96095.08
2022-10-06T07:26:20.085Z,96095.78
2022-10-06T07:28:46.440Z,96091.67
2022-10-06T07:31:12.915Z,96088.02
2022-10-06T07:33:39.219Z,96089.41
2022-10-06T07:36:05.562Z,96090.14
2022-10-06T07:38:31.926Z,96088.11
2022-10-06T07:41:18.431Z,96085.74
2022-10-06T07:43:24.659Z,96085.56
2022-10-06T07:45:51.091Z,96084.14
2022-10-06T07:48:17.416Z,96083.44
2022-10-06T07:50:43.753Z,96084.36
2022-10-06T07:53:10.119Z,96087.09
2022-10-06T07:55:36.677Z,96087.09
2022-10-06T07:58:04.019Z,96085.94
2022-10-06T08:00:29.374Z,96089.55
2022-10-06T08:02:56.748Z,96084.04
2022-10-06T08:05:22.027Z,96074.98
2022-10-06T08:07:48.361Z,96087.72
2022-10-06T08:10:14.706Z,96087.72
2022-10-06T08:12:41.143Z,96082.91
2022-10-06T08:15:08.526Z,96074.66
2022-10-06T08:17:33.876Z,96074.66
2022-10-06T08:20:00.193Z,96084.66
2022-10-06T08:22:26.581Z,96081.74
2022-10-06T08:25:05.373Z,96082.30
2022-10-06T08:27:19.383Z,96083.51
2022-10-06T08:29:45.752Z,96083.51
2022-10-06T08:32:12.158Z,96071.84
2022-10-06T08:34:38.508Z,96079.62
2022-10-06T08:37:20.667Z,96078.56
2022-10-06T08:39:31.194Z,96060.19
2022-10-06T08:41:57.583Z,96076.34
2022-10-06T08:44:23.994Z,96057.52
2022-10-06T08:46:50.310Z,96050.10
2022-10-06T08:49:16.659Z,96069.30
2022-10-06T08:51:43.006Z,96065.66
2022-10-06T08:54:09.355Z,96068.02
2022-10-06T08:56:35.716Z,96067.21
2022-10-06T08:59:02.096Z,96067.21
2022-10-06T09:01:28.497Z,96059.17
2022-10-06T09:03:54.839Z,96061.30
2022-10-06T09:06:21.223Z,96066.84
2022-10-06T09:08:47.592Z,96058.48
2022-10-06T09:11:13.931Z,96071.44
2022-10-06T09:13:40.266Z,96064.12
2022-10-06T09:16:06.653Z,96064.12
2022-10-06T09:18:56.121Z,96058.01
2022-10-06T09:20:59.330Z,96056.95
2022-10-06T09:23:25.709Z,96045.39
2022-10-06T09:25:52.056Z,96037.05
2022-10-06T09:28:18.430Z,96047.55
2022-10-06T09:30:44.744Z,96047.55
2022-10-06T09:33:11.075Z,96048.73
2022-10-06T09:35:37.417Z,96041.69
2022-10-06T09:38:08.233Z,96041.69
2022-10-06T09:40:30.102Z,96023.02
2022-10-06T09:42:56.469Z,96040.72
2022-10-06T09:45:23.756Z,96020.36
2022-10-06T09:47:49.958Z,96036.63
2022-10-06T09:50:16.321Z,96033.44
2022-10-06T09:52:42.675Z,96025.30
2022-10-06T09:55:09.043Z,96024.84
2022-10-06T09:57:35.384Z,96026.59
2022-10-06T10:00:01.735Z,96023.41
2022-10-06T10:02:28.149Z,96020.11
2022-10-06T10:04:54.479Z,96013.16
2022-10-06T10:07:20.849Z,95959.77
2022-10-06T10:09:47.193Z,96013.05
2022-10-06T10:12:13.541Z,96013.88
2022-10-06T10:14:39.880Z,96010.44
2022-10-06T10:17:06.211Z,96008.80
2022-10-06T10:19:32.556Z,96009.61
2022-10-06T10:21:59.105Z,95997.36
2022-10-06T10:24:25.386Z,96001.02
2022-10-06T10:26:51.731Z,95997.80
2022-10-06T10:29:18.073Z,95997.45
2022-10-06T10:31:44.469Z,95994.40
2022-10-06T10:34:22.888Z,95988.61
2022-10-06T10:36:37.180Z,95987.91
2022-10-06T10:39:03.538Z,95981.17
2022-10-06T10:41:29.917Z,95977.63
2022-10-06T10:43:58.598Z,95976.34
2022-10-06T10:46:22.658Z,95977.17
2022-10-06T10:48:48.970Z,95970.22
2022-10-06T10:51:15.322Z,95969.75
2022-10-06T10:53:42.693Z,95962.91
2022-10-06T10:56:08.030Z,95957.80
2022-10-06T10:58:34.376Z,95956.97
2022-10-06T11:01:00.753Z,95953.66
2022-10-06T11:03:27.062Z,95949.55
2022-10-06T11:05:53.400Z,95951.31
2022-10-06T11:08:19.772Z,95956.37
2022-10-06T11:10:46.122Z,95956.95
2022-10-06T11:13:12.500Z,95946.92
2022-10-06T11:15:38.832Z,95921.61
2022-10-06T11:18:05.296Z,95940.19
2022-10-06T11:20:32.610Z,95934.03
2022-10-06T11:22:57.997Z,95932.84
2022-10-06T11:25:24.344Z,95932.37
2022-10-06T11:27:50.693Z,95936.84
2022-10-06T11:30:17.035Z,95930.57
2022-10-06T11:32:43.374Z,95926.45
2022-10-06T11:35:09.715Z,95919.03
2022-10-06T11:37:36.059Z,95915.70
2022-10-06T11:40:02.646Z,95920.55
2022-10-06T11:44:55.153Z,95908.47
2022-10-06T11:47:34.304Z,95908.36
2022-10-06T11:49:47.829Z,95900.31
2022-10-06T11:52:14.316Z,95901.14
2022-10-06T11:54:40.623Z,95897.24
2022-10-06T11:57:07.007Z,95890.28
2022-10-06T11:59:33.349Z,95894.39
2022-10-06T12:01:59.739Z,95889.56
2022-10-06T12:04:26.049Z,95895.44
2022-10-06T12:06:52.405Z,95882.81
2022-10-06T12:09:18.752Z,95878.45
2022-10-06T12:11:45.089Z,95877.69
2022-10-06T12:15:31.824Z,95876.63
2022-10-06T12:19:04.176Z,95874.38
2022-10-06T12:21:30.515Z,95874.13
2022-10-06T12:23:56.858Z,95874.84
2022-10-06T12:26:23.197Z,95867.74
2022-10-06T12:28:49.595Z,95864.31
2022-10-06T12:31:18.218Z,95857.56
2022-10-06T12:33:42.265Z,95859.42
2022-10-06T12:36:08.606Z,95857.35
2022-10-06T12:38:34.950Z,95853.34
2022-10-06T12:41:01.437Z,95852.73
2022-10-06T12:43:27.792Z,95852.25
2022-10-06T12:45:54.190Z,95843.28
2022-10-06T12:48:20.524Z,95843.73
2022-10-06T12:50:46.868Z,95842.91
2022-10-06T12:53:13.215Z,95842.91
2022-10-06T12:55:39.578Z,95846.42
2022-10-06T12:58:05.924Z,95846.42
2022-10-06T13:00:32.287Z,95844.41
2022-10-06T13:02:58.676Z,95834.11
2022-10-06T13:05:25.021Z,95833.50
2022-10-06T13:07:51.366Z,95833.38
2022-10-06T13:10:17.721Z,95825.14
2022-10-06T13:12:44.070Z,95827.15
2022-10-06T13:15:10.411Z,95825.14
2022-10-06T13:17:36.756Z,95824.34
2022-10-06T13:20:03.209Z,95823.94
2022-10-06T13:22:29.560Z,95820.34
2022-10-06T13:24:55.947Z,95818.66
2022-10-06T13:27:22.363Z,95823.85
2022-10-06T13:29:48.695Z,95822.14
2022-10-06T13:32:15.114Z,95820.63
2022-10-06T13:34:41.459Z,95820.07
2022-10-06T13:37:07.889Z,95823.38
2022-10-06T13:39:34.231Z,95817.00
2022-10-06T13:42:00.568Z,95810.21
2022-10-06T13:44:26.964Z,95819.48
2022-10-06T13:46:53.324Z,95819.39
2022-10-06T13:49:19.663Z,95817.53
2022-10-06T13:51:46.009Z,95814.45
2022-10-06T13:54:12.365Z,95815.77
2022-10-06T13:56:38.706Z,95815.29
2022-10-06T13:59:05.058Z,95814.11
2022-10-06T14:01:33.918Z,95816.08
2022-10-06T14:04:03.519Z,95819.48
2022-10-06T14:06:29.863Z,95817.00
2022-10-06T14:08:56.195Z,95810.77
2022-10-06T14:11:22.558Z,95809.73
2022-10-06T14:13:48.897Z,95811.98
2022-10-06T14:16:15.284Z,95811.66
2022-10-06T14:18:41.631Z,95812.03
2022-10-06T14:21:07.966Z,95810.47
2022-10-06T14:23:34.299Z,95818.47
2022-10-06T14:26:00.776Z,95815.61
2022-10-06T14:28:27.151Z,95814.73
2022-10-06T14:30:53.496Z,95815.81
2022-10-06T14:33:19.824Z,95821.12
2022-10-06T14:35:46.164Z,95816.61
2022-10-06T14:38:12.510Z,95815.58
2022-10-06T14:40:38.847Z,95815.52
2022-10-06T14:43:05.256Z,95820.35
2022-10-06T14:45:31.619Z,95822.48
2022-10-06T14:47:57.933Z,95821.51
2022-10-06T14:50:24.272Z,95822.13
2022-10-06T14:52:52.570Z,95818.91
2022-10-06T14:55:18.922Z,95824.67
2022-10-06T14:57:45.261Z,95832.14
2022-10-06T15:00:11.671Z,95829.91
2022-10-06T15:02:38.092Z,95835.16
2022-10-06T15:05:04.368Z,95837.66
2022-10-06T15:07:30.729Z,95834.71
2022-10-06T15:09:57.060Z,95838.08
2022-10-06T15:12:23.394Z,95837.23
2022-10-06T15:14:49.746Z,95840.70
2022-10-06T15:17:16.081Z,95837.39
2022-10-06T15:19:42.437Z,95839.05
2022-10-06T15:22:08.775Z,95842.53
2022-10-06T15:24:35.141Z,95844.86
2022-10-06T15:27:01.474Z,95842.79
2022-10-06T15:29:27.819Z,95847.27
2022-10-06T15:31:54.158Z,95849.19
2022-10-06T15:34:20.501Z,95839.48
2022-10-06T15:36:46.837Z,95840.81
2022-10-06T15:39:13.190Z,95847.45
2022-10-06T15:41:39.524Z,95846.37
2022-10-06T15:44:05.869Z,95847.22
2022-10-06T15:46:32.271Z,95847.87
2022-10-06T15:48:58.547Z,95853.17
2022-10-06T15:51:27.064Z,95845.90
2022-10-06T15:53:53.458Z,95851.30
2022-10-06T15:56:19.812Z,95849.53
2022-10-06T15:58:46.150Z,95847.87
2022-10-06T16:01:12.490Z,95847.87
2022-10-06T16:03:41.216Z,95848.31
2022-10-06T16:06:05.192Z,95852.66
2022-10-06T16:08:31.578Z,95855.58
2022-10-06T16:10:57.918Z,95854.69
2022-10-06T16:13:24.268Z,95860.77
2022-10-06T16:15:50.663Z,95854.95
2022-10-06T16:18:16.957Z,95866.19
2022-10-06T16:20:43.294Z,95864.20
2022-10-06T16:23:09.643Z,95866.89
2022-10-06T16:25:36.004Z,95873.66
2022-10-06T16:28:02.369Z,95871.21
2022-10-06T16:30:28.666Z,95875.20
2022-10-06T16:32:55.014Z,95873.03
2022-10-06T16:35:21.382Z,95878.59
2022-10-06T16:37:47.727Z,95878.45
2022-10-06T16:40:14.067Z,95882.54
2022-10-06T16:42:40.823Z,95875.68
2022-10-06T16:45:06.774Z,95880.28
2022-10-06T16:47:33.134Z,95887.13
2022-10-06T16:49:59.510Z,95873.05
2022-10-06T16:52:25.852Z,95885.52
2022-10-06T16:54:52.185Z,95884.80
2022-10-06T16:57:18.530Z,95891.44
2022-10-06T16:59:46.969Z,95897.67
2022-10-06T17:02:11.209Z,95898.97
2022-10-06T17:04:37.560Z,95902.91
2022-10-06T17:07:03.906Z,95907.01
2022-10-06T17:09:31.480Z,95903.62
2022-10-06T17:11:56.635Z,95905.72
2022-10-06T17:14:22.973Z,95913.19
2022-10-06T17:16:49.343Z,95913.87
2022-10-06T17:19:15.698Z,95916.14
2022-10-06T17:21:47.461Z,95916.25
2022-10-06T17:24:08.391Z,95914.05
2022-10-06T17:26:34.743Z,95916.08
2022-10-06T17:29:01.090Z,95919.36
2022-10-06T17:31:27.480Z,95922.78
2022-10-06T17:33:53.782Z,95922.81
2022-10-06T17:36:20.124Z,95922.20
2022-10-06T17:38:47.100Z,95921.63
2022-10-06T17:41:13.441Z,95919.64
2022-10-06T17:43:39.892Z,95921.55
2022-10-06T17:46:06.328Z,95925.55
2022-10-06T17:48:32.531Z,95924.80
2022-10-06T17:50:58.865Z,95927.07
2022-10-06T17:53:25.215Z,95927.64
2022-10-06T17:55:51.551Z,95928.15
2022-10-06T17:58:18.778Z,95931.22
2022-10-06T18:00:44.282Z,95935.33
2022-10-06T18:03:10.578Z,95938.50
2022-10-06T18:05:36.918Z,95934.53
2022-10-06T18:08:03.253Z,95938.06
2022-10-06T18:10:29.596Z,95940.69
2022-10-06T18:12:57.290Z,95937.38
2022-10-06T18:15:22.276Z,95939.03
2022-10-06T18:17:48.621Z,95941.88
2022-10-06T18:20:14.959Z,95945.41
2022-10-06T18:22:41.585Z,95938.81
2022-10-06T18:25:07.644Z,95944.00
2022-10-06T18:27:33.973Z,95947.06
2022-10-06T18:30:00.317Z,95944.83
2022-10-06T18:33:56.435Z,95947.20
2022-10-06T18:37:19.342Z,95944.25
2022-10-06T18:39:45.683Z,95948.14
2022-10-06T18:42:12.020Z,95948.14
2022-10-06T18:44:38.364Z,95950.98
2022-10-06T18:47:04.700Z,95948.72
2022-10-06T18:49:31.039Z,95951.31
2022-10-06T18:51:58.508Z,95956.17
2022-10-06T18:54:23.734Z,95950.62
2022-10-06T18:56:50.076Z,95953.69
2022-10-06T18:59:16.424Z,95955.13
2022-10-06T19:01:42.838Z,95959.38
2022-10-06T19:04:09.121Z,95959.59
2022-10-06T19:06:35.462Z,95950.98
2022-10-06T19:09:01.803Z,95960.42
2022-10-06T19:11:28.137Z,95961.50
2022-10-06T19:13:54.482Z,95967.38
2022-10-06T19:16:20.967Z,95969.50
2022-10-06T19:18:47.187Z,95959.95
2022-10-06T19:21:13.525Z,95960.31
2022-10-06T19:23:39.881Z,95961.83
2022-10-06T19:26:06.221Z,95969.86
2022-10-06T19:28:32.602Z,95969.86
2022-10-06T19:30:58.949Z,95971.88
2022-10-06T19:33:25.252Z,95969.64
2022-10-06T19:35:51.592Z,95975.41
2022-10-06T19:38:17.946Z,95975.52
2022-10-06T19:40:44.290Z,95979.41
2022-10-06T19:43:10.647Z,95976.81
2022-10-06T19:45:37.033Z,95982.36
2022-10-06T19:48:03.349Z,95972.33
2022-10-06T19:50:29.720Z,95988.73
2022-10-06T19:52:56.067Z,95988.37
2022-10-06T19:55:22.414Z,95987.90
2022-10-06T19:57:48.751Z,95984.12
2022-10-06T20:00:15.123Z,95981.16
2022-10-06T20:02:43.580Z,95977.63
2022-10-06T20:05:07.819Z,95979.53
2022-10-06T20:07:34.158Z,95980.69
2022-10-06T20:10:00.499Z,95989.66
2022-10-06T20:12:26.841Z,95972.34
2022-10-06T20:14:53.184Z,95972.34
2022-10-06T20:17:19.525Z,95983.53
2022-10-06T20:19:45.891Z,95976.72
2022-10-06T20:22:12.247Z,95982.38
2022-10-06T20:24:38.578Z,95984.61
2022-10-06T20:27:04.919Z,95965.98
2022-10-06T20:29:31.250Z,95983.91
2022-10-06T20:31:57.593Z,95986.14
2022-10-06T20:34:23.940Z,95980.27
2022-10-06T20:36:55.362Z,95984.48
2022-10-06T20:39:16.619Z,95985.31
2022-10-06T20:41:42.953Z,95984.02
2022-10-06T20:44:09.293Z,95983.66
2022-10-06T20:46:35.689Z,95983.80
2022-10-06T20:49:01.976Z,95982.97
2022-10-06T20:51:28.318Z,95983.90
2022-10-06T20:53:54.656Z,95984.87
2022-10-06T20:56:20.999Z,95983.10
2022-10-06T20:58:47.343Z,95984.28
2022-10-06T21:01:13.720Z,95990.05
2022-10-06T21:03:40.004Z,95989.23
2022-10-06T21:06:06.332Z,95994.66
2022-10-06T21:08:32.662Z,95997.13
2022-10-06T21:10:59.966Z,95991.83
2022-10-06T21:13:25.341Z,95995.59
2022-10-06T21:15:51.756Z,95991.94
2022-10-06T21:18:18.004Z,95997.48
2022-10-06T21:20:45.321Z,95992.30
2022-10-06T21:23:10.668Z,95993.84
2022-10-06T21:25:36.997Z,95992.42
2022-10-06T21:28:03.373Z,95993.35
2022-10-06T21:30:29.658Z,95999.95
2022-10-06T21:32:55.991Z,95997.24
2022-10-06T21:35:22.320Z,96001.59
2022-10-06T21:37:48.661Z,95999.00
2022-10-06T21:40:15.959Z,96001.13
2022-10-06T21:42:41.346Z,95999.84
2022-10-06T21:45:07.679Z,95999.14
2022-10-06T21:47:34.078Z,95996.42
2022-10-06T21:50:00.338Z,96004.67
2022-10-06T21:52:26.671Z,95996.33
2022-10-06T21:54:53.037Z,95997.25
2022-10-06T21:57:19.339Z,95997.72
2022-10-06T21:59:45.672Z,95996.06
2022-10-06T22:02:12.107Z,95981.12
2022-10-06T22:04:38.405Z,95981.12
2022-10-06T22:07:04.743Z,95989.95
2022-10-06T22:09:31.074Z,95990.32
2022-10-06T22:11:57.527Z,95989.36
2022-10-06T22:14:23.853Z,95997.03
2022-10-06T22:16:50.184Z,96001.63
2022-10-06T22:19:16.514Z,95995.61
2022-10-06T22:21:42.855Z,95989.82
2022-10-06T22:24:09.199Z,95990.66
2022-10-06T22:26:35.510Z,95992.08
2022-10-06T22:29:01.852Z,95993.48
2022-10-06T22:31:28.235Z,95982.66
2022-10-06T22:33:54.516Z,95986.55
2022-10-06T22:36:20.847Z,95974.28
2022-10-06T22:38:47.176Z,95974.28
2022-10-06T22:41:13.507Z,95979.94
2022-10-06T22:43:39.840Z,95978.77
2022-10-06T22:46:06.245Z,95982.19
2022-10-06T22:48:32.505Z,95987.02
2022-10-06T22:50:58.835Z,95982.40
2022-10-06T22:53:25.168Z,95981.00
2022-10-06T22:55:52.576Z,95976.28
2022-10-06T22:58:17.835Z,95954.48
2022-10-06T23:00:44.251Z,95954.48
2022-10-06T23:03:10.540Z,95984.77
2022-10-06T23:05:36.826Z,95984.77
2022-10-06T23:08:03.170Z,95987.02
2022-10-06T23:10:29.481Z,95983.13
2022-10-06T23:12:55.843Z,95984.43
2022-10-06T23:15:22.180Z,95991.02
2022-10-06T23:17:48.537Z,95988.78
2022-10-06T23:20:14.873Z,95988.06
2022-10-06T23:22:42.152Z,95987.27
2022-10-06T23:25:08.768Z,95986.43
2022-10-06T23:27:33.867Z,95992.31
2022-10-06T23:30:00.197Z,95991.62
2022-10-06T23:32:26.522Z,95987.80
2022-10-06T23:34:52.856Z,95990.86
2022-10-06T23:37:19.188Z,95996.17
2022-10-06T23:39:45.519Z,95998.16
2022-10-06T23:42:11.853Z,95990.03
2022-10-06T23:44:38.180Z,95995.20
2022-10-06T23:47:04.545Z,95993.22
2022-10-06T23:49:30.876Z,95993.58
2022-10-06T23:51:57.210Z,95994.54
2022-10-06T23:54:23.565Z,95995.34
2022-10-06T23:56:49.871Z,95987.91
2022-10-06T23:59:16.203Z,95972.84
